PWSweather.com
Personal Weather Stations
Station Observations
RIORANCHO
Corrales Heights, Rio Rancho, NM 87124

Corrales HeightsRio Rancho, NM 87124

Lat: 35.241928, Lon: -106.647095

Elevation: 5297

Station Type: Davis Vantage Pro 2 Plus

http://www.weatherriorancho.com

High Low Average
Temperature 95.8°F35.4°C 63.6°F17.6°C 81.4°F27.4°C
Dew Point 45.5°F7.5°C 25.6°F-3.6°C 33.1°F0.6°C
Winds 8.1 mph 13.0 kmh Calm Calm 2.0 mph S3.2 kmh S
Wind Gusts 15.0 mph24.1 kmh -- 3.0 mph4.8 kmh
Humidity 30% 9% 19%
Pressure 30.14 in1020.7 mb 30.02 in1016.6 mb -
Precipitation 0.00 in0.0 mm - -
Hour Temp Dew Point Humidity Winds Wind Gusts Pressure Precip Precip Rate Daily Precip Total
12:00 AM 71.3°F21.8°C 35.6°F2.0°C 27% Calm Calm -- 30.03 in1016.9 mb - 0.00 in0.0 mm 0.00 in0.0 mm
12:10 AM 71.0°F21.7°C 35.3°F1.8°C 27% Calm Calm -- 30.03 in1016.9 mb - 0.00 in0.0 mm 0.00 in0.0 mm
12:20 AM 70.7°F21.5°C 35.1°F1.7°C 27% Calm Calm -- 30.03 in1016.9 mb - 0.00 in0.0 mm 0.00 in0.0 mm
12:30 AM 70.6°F21.4°C 34.9°F1.6°C 27% Calm Calm -- 30.03 in1016.9 mb - 0.00 in0.0 mm 0.00 in0.0 mm
12:40 AM 70.4°F21.3°C 33.9°F1.1°C 26% Calm Calm -- 30.03 in1016.9 mb - 0.00 in0.0 mm 0.00 in0.0 mm
12:50 AM 71.6°F22.0°C 32.9°F0.5°C 24% Calm Calm -- 30.03 in1016.9 mb - 0.00 in0.0 mm 0.00 in0.0 mm
01:00 AM 71.6°F22.0°C 33.9°F1.1°C 25% Calm Calm -- 30.03 in1016.9 mb - 0.00 in0.0 mm 0.00 in0.0 mm
01:10 AM 71.2°F21.8°C 34.5°F1.4°C 26% Calm Calm -- 30.02 in1016.6 mb - 0.00 in0.0 mm 0.00 in0.0 mm
01:20 AM 70.4°F21.3°C 33.9°F1.1°C 26% Calm Calm -- 30.03 in1016.9 mb - 0.00 in0.0 mm 0.00 in0.0 mm
01:30 AM 70.1°F21.2°C 34.5°F1.4°C 27% Calm Calm -- 30.03 in1016.9 mb - 0.00 in0.0 mm 0.00 in0.0 mm
01:40 AM 69.2°F20.7°C 33.8°F1.0°C 27% Calm Calm -- 30.03 in1016.9 mb - 0.00 in0.0 mm 0.00 in0.0 mm
01:50 AM 68.4°F20.2°C 34.0°F1.1°C 28% Calm Calm -- 30.03 in1016.9 mb - 0.00 in0.0 mm 0.00 in0.0 mm
02:00 AM 67.8°F19.9°C 33.5°F0.8°C 28% Calm Calm -- 30.03 in1016.9 mb - 0.00 in0.0 mm 0.00 in0.0 mm
02:10 AM 67.2°F19.6°C 33.8°F1.0°C 29% Calm Calm -- 30.04 in1017.3 mb - 0.00 in0.0 mm 0.00 in0.0 mm
02:20 AM 66.6°F19.2°C 34.2°F1.2°C 30% Calm Calm -- 30.04 in1017.3 mb - 0.00 in0.0 mm 0.00 in0.0 mm
02:30 AM 66.2°F19.0°C 33.8°F1.0°C 30% Calm Calm -- 30.05 in1017.6 mb - 0.00 in0.0 mm 0.00 in0.0 mm
02:40 AM 66.1°F18.9°C 32.0°F0.0°C 28% Calm Calm -- 30.05 in1017.6 mb - 0.00 in0.0 mm 0.00 in0.0 mm
02:50 AM 66.1°F18.9°C 31.1°F-0.5°C 27% Calm Calm 2.3 mph3.7 kmh 30.05 in1017.6 mb - 0.00 in0.0 mm 0.00 in0.0 mm
03:00 AM 67.0°F19.4°C 31.9°F-0.1°C 27% Calm Calm 1.2 mph1.9 kmh 30.05 in1017.6 mb - 0.00 in0.0 mm 0.00 in0.0 mm
03:10 AM 67.5°F19.7°C 34.1°F1.2°C 29% Calm Calm -- 30.06 in1017.9 mb - 0.00 in0.0 mm 0.00 in0.0 mm
03:20 AM 68.4°F20.2°C 35.7°F2.1°C 30% Calm Calm -- 30.06 in1017.9 mb - 0.00 in0.0 mm 0.00 in0.0 mm
03:30 AM 68.1°F20.1°C 34.6°F1.4°C 29% Calm Calm -- 30.06 in1017.9 mb - 0.00 in0.0 mm 0.00 in0.0 mm
03:40 AM 67.5°F19.7°C 34.1°F1.2°C 29% Calm Calm -- 30.06 in1017.9 mb - 0.00 in0.0 mm 0.00 in0.0 mm
03:50 AM 66.8°F19.3°C 34.3°F1.3°C 30% Calm Calm -- 30.06 in1017.9 mb - 0.00 in0.0 mm 0.00 in0.0 mm
04:00 AM 66.2°F19.0°C 33.8°F1.0°C 30% Calm Calm -- 30.07 in1018.3 mb - 0.00 in0.0 mm 0.00 in0.0 mm
04:10 AM 65.7°F18.7°C 31.7°F-0.2°C 28% Calm Calm 1.2 mph1.9 kmh 30.07 in1018.3 mb - 0.00 in0.0 mm 0.00 in0.0 mm
04:20 AM 65.3°F18.5°C 30.4°F-0.9°C 27% Calm Calm 1.2 mph1.9 kmh 30.07 in1018.3 mb - 0.00 in0.0 mm 0.00 in0.0 mm
04:30 AM 65.0°F18.3°C 28.3°F-2.1°C 25% Calm Calm -- 30.08 in1018.6 mb - 0.00 in0.0 mm 0.00 in0.0 mm
04:40 AM 64.6°F18.1°C 27.9°F-2.3°C 25% Calm Calm -- 30.08 in1018.6 mb - 0.00 in0.0 mm 0.00 in0.0 mm
04:50 AM 64.2°F17.9°C 27.6°F-2.4°C 25% Calm Calm -- 30.08 in1018.6 mb - 0.00 in0.0 mm 0.00 in0.0 mm
05:00 AM 64.0°F17.8°C 27.4°F-2.6°C 25% Calm Calm -- 30.09 in1019.0 mb - 0.00 in0.0 mm 0.00 in0.0 mm
05:10 AM 63.8°F17.7°C 27.3°F-2.6°C 25% Calm Calm -- 30.09 in1019.0 mb - 0.00 in0.0 mm 0.00 in0.0 mm
05:20 AM 63.6°F17.6°C 28.1°F-2.2°C 26% Calm Calm -- 30.10 in1019.3 mb - 0.00 in0.0 mm 0.00 in0.0 mm
05:30 AM 63.8°F17.7°C 28.2°F-2.1°C 26% Calm Calm -- 30.10 in1019.3 mb - 0.00 in0.0 mm 0.00 in0.0 mm
05:40 AM 63.9°F17.7°C 31.0°F-0.6°C 29% Calm Calm -- 30.11 in1019.6 mb - 0.00 in0.0 mm 0.00 in0.0 mm
05:50 AM 64.1°F17.8°C 32.0°F0.0°C 30% Calm Calm -- 30.11 in1019.6 mb - 0.00 in0.0 mm 0.00 in0.0 mm
06:00 AM 65.0°F18.3°C 30.2°F-1.0°C 27% Calm Calm -- 30.11 in1019.6 mb - 0.00 in0.0 mm 0.00 in0.0 mm
06:10 AM 65.6°F18.7°C 31.6°F-0.2°C 28% Calm Calm -- 30.12 in1020.0 mb - 0.00 in0.0 mm 0.00 in0.0 mm
06:20 AM 66.0°F18.9°C 31.9°F-0.1°C 28% Calm Calm -- 30.12 in1020.0 mb - 0.00 in0.0 mm 0.00 in0.0 mm
06:30 AM 66.8°F19.3°C 32.6°F0.3°C 28% Calm Calm 2.3 mph3.7 kmh 30.12 in1020.0 mb - 0.00 in0.0 mm 0.00 in0.0 mm
06:40 AM 67.9°F19.9°C 31.7°F-0.2°C 26% Calm Calm 3.5 mph5.6 kmh 30.12 in1020.0 mb - 0.00 in0.0 mm 0.00 in0.0 mm
06:50 AM 68.6°F20.3°C 31.4°F-0.3°C 25% Calm Calm -- 30.13 in1020.3 mb - 0.00 in0.0 mm 0.00 in0.0 mm
07:00 AM 69.9°F21.1°C 32.4°F0.2°C 25% Calm Calm -- 30.13 in1020.3 mb - 0.00 in0.0 mm 0.00 in0.0 mm
07:10 AM 71.0°F21.7°C 32.4°F0.2°C 24% Calm Calm -- 30.13 in1020.3 mb - 0.00 in0.0 mm 0.00 in0.0 mm
07:20 AM 72.4°F22.4°C 34.6°F1.4°C 25% Calm Calm -- 30.14 in1020.7 mb - 0.00 in0.0 mm 0.00 in0.0 mm
07:30 AM 73.6°F23.1°C 33.5°F0.8°C 23% Calm Calm -- 30.14 in1020.7 mb - 0.00 in0.0 mm 0.00 in0.0 mm
07:40 AM 75.3°F24.1°C 36.0°F2.2°C 24% Calm Calm -- 30.14 in1020.7 mb - 0.00 in0.0 mm 0.00 in0.0 mm
07:50 AM 76.4°F24.7°C 39.0°F3.9°C 26% Calm Calm -- 30.14 in1020.7 mb - 0.00 in0.0 mm 0.00 in0.0 mm
08:00 AM 78.2°F25.7°C 39.5°F4.2°C 25% Calm Calm -- 30.14 in1020.7 mb - 0.00 in0.0 mm 0.00 in0.0 mm
08:10 AM 78.4°F25.8°C 40.7°F4.8°C 26% Calm Calm -- 30.14 in1020.7 mb - 0.00 in0.0 mm 0.00 in0.0 mm
08:20 AM 79.5°F26.4°C 39.5°F4.2°C 24% Calm Calm 1.2 mph1.9 kmh 30.14 in1020.7 mb - 0.00 in0.0 mm 0.00 in0.0 mm
08:30 AM 79.5°F26.4°C 38.4°F3.6°C 23% Calm Calm -- 30.14 in1020.7 mb - 0.00 in0.0 mm 0.00 in0.0 mm
08:40 AM 80.5°F26.9°C 38.1°F3.4°C 22% Calm Calm -- 30.14 in1020.7 mb - 0.00 in0.0 mm 0.00 in0.0 mm
08:50 AM 80.9°F27.2°C 40.7°F4.8°C 24% Calm Calm 1.2 mph1.9 kmh 30.14 in1020.7 mb - 0.00 in0.0 mm 0.00 in0.0 mm
09:00 AM 81.4°F27.4°C 44.2°F6.8°C 27% Calm Calm 3.5 mph5.6 kmh 30.13 in1020.3 mb - 0.00 in0.0 mm 0.00 in0.0 mm
09:10 AM 81.8°F27.7°C 45.5°F7.5°C 28% Calm Calm -- 30.13 in1020.3 mb - 0.00 in0.0 mm 0.00 in0.0 mm
09:20 AM 82.3°F27.9°C 43.0°F6.1°C 25% 1.2 mph SE1.9 kmh SE 1.2 mph1.9 kmh 30.13 in1020.3 mb - 0.00 in0.0 mm 0.00 in0.0 mm
09:30 AM 82.3°F27.9°C 40.8°F4.9°C 23% 1.2 mph SSE1.9 kmh SSE 6.9 mph11.1 kmh 30.13 in1020.3 mb - 0.00 in0.0 mm 0.00 in0.0 mm
09:40 AM 83.6°F28.7°C 40.7°F4.8°C 22% Calm Calm -- 30.13 in1020.3 mb - 0.00 in0.0 mm 0.00 in0.0 mm
09:50 AM 85.1°F29.5°C 40.8°F4.9°C 21% 2.3 mph ESE3.7 kmh ESE 4.6 mph7.4 kmh 30.13 in1020.3 mb - 0.00 in0.0 mm 0.00 in0.0 mm
10:00 AM 85.7°F29.8°C 40.0°F4.4°C 20% 1.2 mph ESE1.9 kmh ESE 8.1 mph13.0 kmh 30.13 in1020.3 mb - 0.00 in0.0 mm 0.00 in0.0 mm
10:10 AM 85.8°F29.9°C 40.1°F4.5°C 20% 2.3 mph NE3.7 kmh NE 4.6 mph7.4 kmh 30.13 in1020.3 mb - 0.00 in0.0 mm 0.00 in0.0 mm
10:20 AM 87.0°F30.6°C 39.7°F4.3°C 19% 2.3 mph SE3.7 kmh SE 4.6 mph7.4 kmh 30.13 in1020.3 mb - 0.00 in0.0 mm 0.00 in0.0 mm
10:30 AM 87.2°F30.7°C 38.6°F3.7°C 18% 3.5 mph ESE5.6 kmh ESE 9.2 mph14.8 kmh 30.13 in1020.3 mb - 0.00 in0.0 mm 0.00 in0.0 mm
10:40 AM 86.5°F30.3°C 39.3°F4.1°C 19% Calm Calm 2.3 mph3.7 kmh 30.13 in1020.3 mb - 0.00 in0.0 mm 0.00 in0.0 mm
10:50 AM 87.2°F30.7°C 38.5°F3.6°C 18% Calm Calm 5.8 mph9.3 kmh 30.12 in1020.0 mb - 0.00 in0.0 mm 0.00 in0.0 mm
11:00 AM 87.7°F30.9°C 36.0°F2.2°C 16% 5.8 mph SE9.3 kmh SE 9.2 mph14.8 kmh 30.12 in1020.0 mb - 0.00 in0.0 mm 0.00 in0.0 mm
11:10 AM 89.0°F31.7°C 35.4°F1.9°C 15% 1.2 mph SW1.9 kmh SW 5.8 mph9.3 kmh 30.12 in1020.0 mb - 0.00 in0.0 mm 0.00 in0.0 mm
11:20 AM 89.7°F32.1°C 37.5°F3.1°C 16% 3.5 mph SE5.6 kmh SE 5.8 mph9.3 kmh 30.12 in1020.0 mb - 0.00 in0.0 mm 0.00 in0.0 mm
11:30 AM 88.9°F31.6°C 36.9°F2.7°C 16% 1.2 mph SE1.9 kmh SE 3.5 mph5.6 kmh 30.12 in1020.0 mb - 0.00 in0.0 mm 0.00 in0.0 mm
11:40 AM 89.9°F32.2°C 36.1°F2.3°C 15% 2.3 mph SE3.7 kmh SE 1.2 mph1.9 kmh 30.12 in1020.0 mb - 0.00 in0.0 mm 0.00 in0.0 mm
11:50 AM 91.0°F32.8°C 36.9°F2.7°C 15% Calm Calm 3.5 mph5.6 kmh 30.11 in1019.6 mb - 0.00 in0.0 mm 0.00 in0.0 mm
12:00 PM 90.5°F32.5°C 34.8°F1.6°C 14% 3.5 mph SE5.6 kmh SE 8.1 mph13.0 kmh 30.11 in1019.6 mb - 0.00 in0.0 mm 0.00 in0.0 mm
12:10 PM 91.5°F33.1°C 37.3°F2.9°C 15% 4.6 mph SE7.4 kmh SE 6.9 mph11.1 kmh 30.11 in1019.6 mb - 0.00 in0.0 mm 0.00 in0.0 mm
12:20 PM 91.9°F33.3°C 34.0°F1.1°C 13% 3.5 mph SW5.6 kmh SW 12.7 mph20.4 kmh 30.11 in1019.6 mb - 0.00 in0.0 mm 0.00 in0.0 mm
12:30 PM 93.1°F33.9°C 35.0°F1.7°C 13% 2.3 mph ESE3.7 kmh ESE 11.5 mph18.5 kmh 30.10 in1019.3 mb - 0.00 in0.0 mm 0.00 in0.0 mm
12:40 PM 92.9°F33.8°C 32.8°F0.4°C 12% 4.6 mph SE7.4 kmh SE 6.9 mph11.1 kmh 30.10 in1019.3 mb - 0.00 in0.0 mm 0.00 in0.0 mm
12:50 PM 94.0°F34.4°C 31.5°F-0.3°C 11% Calm Calm 3.5 mph5.6 kmh 30.09 in1019.0 mb - 0.00 in0.0 mm 0.00 in0.0 mm
01:00 PM 93.9°F34.4°C 31.4°F-0.3°C 11% 1.2 mph ESE1.9 kmh ESE 1.2 mph1.9 kmh 30.09 in1019.0 mb - 0.00 in0.0 mm 0.00 in0.0 mm
01:10 PM 94.2°F34.6°C 31.7°F-0.2°C 11% 5.8 mph SE9.3 kmh SE 9.2 mph14.8 kmh 30.09 in1019.0 mb - 0.00 in0.0 mm 0.00 in0.0 mm
01:20 PM 94.5°F34.7°C 31.9°F-0.1°C 11% 4.6 mph ESE7.4 kmh ESE 8.1 mph13.0 kmh 30.08 in1018.6 mb - 0.00 in0.0 mm 0.00 in0.0 mm
01:30 PM 94.2°F34.6°C 31.6°F-0.2°C 11% 1.2 mph SE1.9 kmh SE 8.1 mph13.0 kmh 30.08 in1018.6 mb - 0.00 in0.0 mm 0.00 in0.0 mm
01:40 PM 94.3°F34.6°C 31.7°F-0.2°C 11% 1.2 mph SE1.9 kmh SE 5.8 mph9.3 kmh 30.08 in1018.6 mb - 0.00 in0.0 mm 0.00 in0.0 mm
01:50 PM 93.7°F34.3°C 31.3°F-0.4°C 11% 4.6 mph ESE7.4 kmh ESE 12.7 mph20.4 kmh 30.08 in1018.6 mb - 0.00 in0.0 mm 0.00 in0.0 mm
02:00 PM 94.0°F34.4°C 31.5°F-0.3°C 11% 2.3 mph SE3.7 kmh SE 3.5 mph5.6 kmh 30.08 in1018.6 mb - 0.00 in0.0 mm 0.00 in0.0 mm
02:10 PM 94.4°F34.7°C 31.8°F-0.1°C 11% 6.9 mph E11.1 kmh E 9.2 mph14.8 kmh 30.07 in1018.3 mb - 0.00 in0.0 mm 0.00 in0.0 mm
02:20 PM 95.8°F35.4°C 30.5°F-0.8°C 10% 4.6 mph ESE7.4 kmh ESE 5.8 mph9.3 kmh 30.07 in1018.3 mb - 0.00 in0.0 mm 0.00 in0.0 mm
02:30 PM 94.9°F34.9°C 29.8°F-1.2°C 10% 4.6 mph S7.4 kmh S 8.1 mph13.0 kmh 30.07 in1018.3 mb - 0.00 in0.0 mm 0.00 in0.0 mm
02:40 PM 95.2°F35.1°C 30.0°F-1.1°C 10% 2.3 mph SW3.7 kmh SW 5.8 mph9.3 kmh 30.06 in1017.9 mb - 0.00 in0.0 mm 0.00 in0.0 mm
02:50 PM 95.6°F35.3°C 30.3°F-0.9°C 10% 8.1 mph ESE13.0 kmh ESE 12.7 mph20.4 kmh 30.06 in1017.9 mb - 0.00 in0.0 mm 0.00 in0.0 mm
03:00 PM 95.5°F35.3°C 30.3°F-0.9°C 10% 3.5 mph SE5.6 kmh SE 6.9 mph11.1 kmh 30.06 in1017.9 mb - 0.00 in0.0 mm 0.00 in0.0 mm
03:10 PM 95.3°F35.2°C 30.1°F-1.1°C 10% 4.6 mph ENE7.4 kmh ENE 8.1 mph13.0 kmh 30.05 in1017.6 mb - 0.00 in0.0 mm 0.00 in0.0 mm
03:20 PM 95.6°F35.3°C 30.4°F-0.9°C 10% 6.9 mph SE11.1 kmh SE 15.0 mph24.1 kmh 30.05 in1017.6 mb - 0.00 in0.0 mm 0.00 in0.0 mm
03:30 PM 94.9°F34.9°C 29.8°F-1.2°C 10% 4.6 mph ESE7.4 kmh ESE 10.4 mph16.7 kmh 30.05 in1017.6 mb - 0.00 in0.0 mm 0.00 in0.0 mm
03:40 PM 95.3°F35.2°C 27.5°F-2.5°C 9% 3.5 mph SSE5.6 kmh SSE 5.8 mph9.3 kmh 30.05 in1017.6 mb - 0.00 in0.0 mm 0.00 in0.0 mm
03:50 PM 94.7°F34.8°C 29.7°F-1.3°C 10% 1.2 mph ESE1.9 kmh ESE 3.5 mph5.6 kmh 30.04 in1017.3 mb - 0.00 in0.0 mm 0.00 in0.0 mm
04:00 PM 94.7°F34.8°C 27.1°F-2.7°C 9% 8.1 mph SE13.0 kmh SE 11.5 mph18.5 kmh 30.04 in1017.3 mb - 0.00 in0.0 mm 0.00 in0.0 mm
04:10 PM 95.3°F35.2°C 30.1°F-1.1°C 10% 4.6 mph SE7.4 kmh SE 13.8 mph22.2 kmh 30.03 in1016.9 mb - 0.00 in0.0 mm 0.00 in0.0 mm
04:20 PM 94.9°F34.9°C 29.8°F-1.2°C 10% 3.5 mph E5.6 kmh E 8.1 mph13.0 kmh 30.03 in1016.9 mb - 0.00 in0.0 mm 0.00 in0.0 mm
04:30 PM 94.8°F34.9°C 29.7°F-1.3°C 10% 8.1 mph ESE13.0 kmh ESE 9.2 mph14.8 kmh 30.03 in1016.9 mb - 0.00 in0.0 mm 0.00 in0.0 mm
04:40 PM 94.1°F34.5°C 29.2°F-1.6°C 10% 3.5 mph ESE5.6 kmh ESE 9.2 mph14.8 kmh 30.03 in1016.9 mb - 0.00 in0.0 mm 0.00 in0.0 mm
04:50 PM 94.7°F34.8°C 29.7°F-1.3°C 10% 5.8 mph E9.3 kmh E 11.5 mph18.5 kmh 30.03 in1016.9 mb - 0.00 in0.0 mm 0.00 in0.0 mm
05:00 PM 94.0°F34.4°C 26.6°F-3.0°C 9% 6.9 mph ESE11.1 kmh ESE 10.4 mph16.7 kmh 30.02 in1016.6 mb - 0.00 in0.0 mm 0.00 in0.0 mm
05:10 PM 93.5°F34.2°C 28.8°F-1.8°C 10% 5.8 mph ESE9.3 kmh ESE 6.9 mph11.1 kmh 30.02 in1016.6 mb - 0.00 in0.0 mm 0.00 in0.0 mm
05:20 PM 93.6°F34.2°C 28.8°F-1.8°C 10% 4.6 mph SE7.4 kmh SE 5.8 mph9.3 kmh 30.02 in1016.6 mb - 0.00 in0.0 mm 0.00 in0.0 mm
05:30 PM 93.4°F34.1°C 28.7°F-1.8°C 10% 5.8 mph ESE9.3 kmh ESE 9.2 mph14.8 kmh 30.02 in1016.6 mb - 0.00 in0.0 mm 0.00 in0.0 mm
05:40 PM 92.8°F33.8°C 28.2°F-2.1°C 10% 6.9 mph SE11.1 kmh SE 9.2 mph14.8 kmh 30.02 in1016.6 mb - 0.00 in0.0 mm 0.00 in0.0 mm
05:50 PM 93.1°F33.9°C 30.8°F-0.7°C 11% 3.5 mph ESE5.6 kmh ESE 5.8 mph9.3 kmh 30.02 in1016.6 mb - 0.00 in0.0 mm 0.00 in0.0 mm
06:00 PM 92.6°F33.7°C 30.4°F-0.9°C 11% 2.3 mph SE3.7 kmh SE 4.6 mph7.4 kmh 30.02 in1016.6 mb - 0.00 in0.0 mm 0.00 in0.0 mm
06:10 PM 92.5°F33.6°C 28.0°F-2.2°C 10% 3.5 mph SE5.6 kmh SE 5.8 mph9.3 kmh 30.02 in1016.6 mb - 0.00 in0.0 mm 0.00 in0.0 mm
06:20 PM 92.2°F33.4°C 27.8°F-2.3°C 10% 2.3 mph SSE3.7 kmh SSE 8.1 mph13.0 kmh 30.03 in1016.9 mb - 0.00 in0.0 mm 0.00 in0.0 mm
06:30 PM 91.7°F33.2°C 29.7°F-1.3°C 11% 2.3 mph SE3.7 kmh SE 8.1 mph13.0 kmh 30.03 in1016.9 mb - 0.00 in0.0 mm 0.00 in0.0 mm
06:40 PM 91.3°F32.9°C 29.4°F-1.4°C 11% 3.5 mph S5.6 kmh S 6.9 mph11.1 kmh 30.03 in1016.9 mb - 0.00 in0.0 mm 0.00 in0.0 mm
06:50 PM 90.6°F32.6°C 28.9°F-1.7°C 11% 2.3 mph SSE3.7 kmh SSE 4.6 mph7.4 kmh 30.03 in1016.9 mb - 0.00 in0.0 mm 0.00 in0.0 mm
07:00 PM 90.2°F32.3°C 28.6°F-1.9°C 11% 1.2 mph SSE1.9 kmh SSE 3.5 mph5.6 kmh 30.03 in1016.9 mb - 0.00 in0.0 mm 0.00 in0.0 mm
07:10 PM 89.7°F32.1°C 28.2°F-2.1°C 11% 1.2 mph SSE1.9 kmh SSE 3.5 mph5.6 kmh 30.03 in1016.9 mb - 0.00 in0.0 mm 0.00 in0.0 mm
07:20 PM 89.2°F31.8°C 31.9°F-0.1°C 13% 2.3 mph S3.7 kmh S 6.9 mph11.1 kmh 30.03 in1016.9 mb - 0.00 in0.0 mm 0.00 in0.0 mm
07:30 PM 88.7°F31.5°C 29.6°F-1.3°C 12% 1.2 mph S1.9 kmh S 3.5 mph5.6 kmh 30.03 in1016.9 mb - 0.00 in0.0 mm 0.00 in0.0 mm
07:40 PM 88.3°F31.3°C 31.2°F-0.4°C 13% 1.2 mph S1.9 kmh S 4.6 mph7.4 kmh 30.03 in1016.9 mb - 0.00 in0.0 mm 0.00 in0.0 mm
07:50 PM 87.9°F31.1°C 30.9°F-0.6°C 13% 1.2 mph S1.9 kmh S 3.5 mph5.6 kmh 30.03 in1016.9 mb - 0.00 in0.0 mm 0.00 in0.0 mm
08:00 PM 87.6°F30.9°C 30.6°F-0.8°C 13% 1.2 mph S1.9 kmh S 4.6 mph7.4 kmh 30.03 in1016.9 mb - 0.00 in0.0 mm 0.00 in0.0 mm
08:10 PM 87.4°F30.8°C 28.5°F-1.9°C 12% 2.3 mph S3.7 kmh S 3.5 mph5.6 kmh 30.04 in1017.3 mb - 0.00 in0.0 mm 0.00 in0.0 mm
08:20 PM 87.2°F30.7°C 28.4°F-2.0°C 12% Calm Calm -- 30.04 in1017.3 mb - 0.00 in0.0 mm 0.00 in0.0 mm
08:30 PM 86.5°F30.3°C 29.8°F-1.2°C 13% 1.2 mph SW1.9 kmh SW 3.5 mph5.6 kmh 30.04 in1017.3 mb - 0.00 in0.0 mm 0.00 in0.0 mm
08:40 PM 85.8°F29.9°C 29.3°F-1.5°C 13% Calm Calm -- 30.05 in1017.6 mb - 0.00 in0.0 mm 0.00 in0.0 mm
08:50 PM 84.9°F29.4°C 28.6°F-1.9°C 13% Calm Calm 2.3 mph3.7 kmh 30.05 in1017.6 mb - 0.00 in0.0 mm 0.00 in0.0 mm
09:00 PM 84.1°F28.9°C 27.9°F-2.3°C 13% Calm Calm -- 30.05 in1017.6 mb - 0.00 in0.0 mm 0.00 in0.0 mm
09:10 PM 83.6°F28.7°C 25.6°F-3.6°C 12% Calm Calm -- 30.06 in1017.9 mb - 0.00 in0.0 mm 0.00 in0.0 mm
09:20 PM 82.4°F28.0°C 33.2°F0.7°C 17% 1.2 mph SE1.9 kmh SE 2.3 mph3.7 kmh 30.07 in1018.3 mb - 0.00 in0.0 mm 0.00 in0.0 mm
09:30 PM 81.5°F27.5°C 32.5°F0.3°C 17% 1.2 mph S1.9 kmh S 2.3 mph3.7 kmh 30.07 in1018.3 mb - 0.00 in0.0 mm 0.00 in0.0 mm
09:40 PM 81.7°F27.6°C 32.6°F0.3°C 17% Calm Calm 2.3 mph3.7 kmh 30.07 in1018.3 mb - 0.00 in0.0 mm 0.00 in0.0 mm
09:50 PM 81.6°F27.6°C 35.3°F1.8°C 19% 1.2 mph S1.9 kmh S 3.5 mph5.6 kmh 30.07 in1018.3 mb - 0.00 in0.0 mm 0.00 in0.0 mm
10:00 PM 81.3°F27.4°C 35.1°F1.7°C 19% Calm Calm 1.2 mph1.9 kmh 30.07 in1018.3 mb - 0.00 in0.0 mm 0.00 in0.0 mm
10:10 PM 80.7°F27.1°C 35.9°F2.2°C 20% 1.2 mph S1.9 kmh S 3.5 mph5.6 kmh 30.07 in1018.3 mb - 0.00 in0.0 mm 0.00 in0.0 mm
10:20 PM 80.8°F27.1°C 36.0°F2.2°C 20% 1.2 mph S1.9 kmh S 3.5 mph5.6 kmh 30.07 in1018.3 mb - 0.00 in0.0 mm 0.00 in0.0 mm
10:30 PM 80.5°F26.9°C 37.0°F2.8°C 21% 2.3 mph S3.7 kmh S 2.3 mph3.7 kmh 30.08 in1018.6 mb - 0.00 in0.0 mm 0.00 in0.0 mm
10:40 PM 79.9°F26.6°C 36.4°F2.4°C 21% Calm Calm -- 30.08 in1018.6 mb - 0.00 in0.0 mm 0.00 in0.0 mm
10:50 PM 79.2°F26.2°C 35.9°F2.2°C 21% Calm Calm 1.2 mph1.9 kmh 30.09 in1019.0 mb - 0.00 in0.0 mm 0.00 in0.0 mm
11:00 PM 78.5°F25.8°C 36.5°F2.5°C 22% Calm Calm -- 30.09 in1019.0 mb - 0.00 in0.0 mm 0.00 in0.0 mm
11:10 PM 78.2°F25.7°C 36.2°F2.3°C 22% Calm Calm -- 30.09 in1019.0 mb - 0.00 in0.0 mm 0.00 in0.0 mm
11:20 PM 77.9°F25.5°C 37.1°F2.8°C 23% Calm Calm -- 30.09 in1019.0 mb - 0.00 in0.0 mm 0.00 in0.0 mm
11:30 PM 77.4°F25.2°C 37.7°F3.2°C 24% Calm Calm -- 30.09 in1019.0 mb - 0.00 in0.0 mm 0.00 in0.0 mm
11:40 PM 76.7°F24.8°C 37.2°F2.9°C 24% Calm Calm -- 30.10 in1019.3 mb - 0.00 in0.0 mm 0.00 in0.0 mm
11:50 PM 76.1°F24.5°C 37.7°F3.2°C 25% Calm Calm -- 30.10 in1019.3 mb - 0.00 in0.0 mm 0.00 in0.0 mm